createdAt,value
2022-12-08T00:01:44.993Z,7.67
2022-12-08T00:04:13.044Z,6.87
2022-12-08T00:07:01.950Z,9.23
2022-12-08T00:09:38.553Z,7.97
2022-12-08T00:12:11.260Z,7.90
2022-12-08T00:14:40.805Z,7.10
2022-12-08T00:17:10.913Z,7.50
2022-12-08T00:19:40.115Z,7.43
2022-12-08T00:22:11.208Z,7.83
2022-12-08T00:24:41.040Z,7.67
2022-12-08T00:27:10.042Z,7.33
2022-12-08T00:29:38.607Z,7.93
2022-12-08T00:32:07.120Z,6.87
2022-12-08T00:34:35.712Z,7.37
2022-12-08T00:37:03.816Z,8.50
2022-12-08T00:39:33.417Z,7.80
2022-12-08T00:42:13.517Z,7.63
2022-12-08T00:44:41.985Z,7.63
2022-12-08T00:47:10.418Z,8.10
2022-12-08T00:49:38.270Z,7.50
2022-12-08T00:52:06.447Z,8.13
2022-12-08T00:54:35.902Z,7.63
2022-12-08T00:57:04.167Z,7.73
2022-12-08T00:59:31.986Z,8.13
2022-12-08T01:02:00.246Z,9.27
2022-12-08T01:04:28.488Z,8.70
2022-12-08T01:06:56.266Z,7.93
2022-12-08T01:09:24.411Z,6.90
2022-12-08T01:11:53.761Z,7.83
2022-12-08T01:14:21.721Z,7.40
2022-12-08T01:16:49.685Z,6.93
2022-12-08T01:19:18.307Z,7.73
2022-12-08T01:21:47.516Z,8.13
2022-12-08T01:24:17.322Z,7.90
2022-12-08T01:26:45.592Z,8.50
2022-12-08T01:29:15.353Z,7.23
2022-12-08T01:31:43.530Z,8.00
2022-12-08T01:34:13.729Z,7.50
2022-12-08T01:36:42.321Z,7.17
2022-12-08T01:39:15.985Z,7.17
2022-12-08T01:41:44.995Z,6.33
2022-12-08T01:45:03.849Z,8.57
2022-12-08T01:47:39.302Z,6.63
2022-12-08T01:50:11.488Z,7.03
2022-12-08T01:52:41.532Z,6.53
2022-12-08T01:55:14.361Z,6.37
2022-12-08T01:57:46.559Z,6.90
2022-12-08T02:00:17.751Z,6.80
2022-12-08T02:02:55.137Z,7.17
2022-12-08T02:05:26.615Z,5.93
2022-12-08T02:07:55.839Z,8.27
2022-12-08T02:10:25.615Z,6.20
2022-12-08T02:12:55.119Z,6.27
2022-12-08T02:15:34.040Z,6.13
2022-12-08T02:18:17.270Z,7.10
2022-12-08T02:20:57.702Z,6.93
2022-12-08T02:23:34.726Z,10.77
2022-12-08T02:26:42.263Z,6.23
2022-12-08T02:29:34.810Z,6.40
2022-12-08T02:32:25.705Z,7.20
2022-12-08T02:35:00.707Z,6.90
2022-12-08T02:37:33.334Z,7.13
2022-12-08T02:40:06.791Z,7.40
2022-12-08T02:42:40.464Z,8.53
2022-12-08T02:45:16.315Z,10.57
2022-12-08T02:47:45.407Z,10.03
2022-12-08T02:50:16.304Z,9.00
2022-12-08T02:52:45.810Z,9.83
2022-12-08T02:55:22.047Z,10.70
2022-12-08T02:58:05.679Z,11.00
2022-12-08T03:00:40.596Z,10.93
2022-12-08T03:03:16.173Z,10.33
2022-12-08T03:05:58.824Z,10.60
2022-12-08T03:08:33.954Z,10.03
2022-12-08T03:11:06.313Z,10.13
2022-12-08T03:13:39.653Z,11.07
2022-12-08T03:16:12.351Z,11.90
2022-12-08T03:18:46.752Z,11.00
2022-12-08T03:21:17.632Z,11.93
2022-12-08T03:23:47.197Z,11.60
2022-12-08T03:26:20.389Z,13.13
2022-12-08T03:28:48.878Z,11.00
2022-12-08T03:31:20.282Z,11.50
2022-12-08T03:33:52.801Z,10.87
2022-12-08T03:36:22.513Z,12.63
2022-12-08T03:38:53.570Z,11.60
2022-12-08T03:41:23.283Z,12.33
2022-12-08T03:43:52.631Z,11.27
2022-12-08T03:48:49.620Z,11.50
2022-12-08T03:51:18.293Z,12.10
2022-12-08T03:53:48.055Z,11.57
2022-12-08T03:56:21.205Z,12.53
2022-12-08T03:58:49.366Z,11.73
2022-12-08T04:01:18.088Z,11.73
2022-12-08T04:03:46.541Z,11.97
2022-12-08T04:06:14.983Z,11.73
2022-12-08T04:08:43.756Z,12.37
2022-12-08T04:11:13.637Z,12.50
2022-12-08T04:13:43.428Z,11.87
2022-12-08T04:16:17.054Z,11.90
2022-12-08T04:18:45.293Z,12.17
2022-12-08T04:21:14.358Z,12.30
2022-12-08T04:23:42.434Z,13.30
2022-12-08T04:26:12.848Z,12.73
2022-12-08T04:28:40.887Z,12.83
2022-12-08T04:31:09.050Z,13.83
2022-12-08T04:33:37.204Z,13.73
2022-12-08T04:36:06.887Z,13.20
2022-12-08T04:38:35.680Z,14.80
2022-12-08T04:41:03.505Z,13.03
2022-12-08T04:43:32.878Z,14.50
2022-12-08T04:46:00.677Z,14.53
2022-12-08T04:48:28.408Z,13.80
2022-12-08T04:50:56.534Z,13.80
2022-12-08T04:53:26.825Z,13.97
2022-12-08T04:55:54.881Z,14.03
2022-12-08T04:58:23.629Z,13.97
2022-12-08T05:00:53.644Z,13.27
2022-12-08T05:03:28.095Z,13.80
2022-12-08T05:05:56.387Z,13.43
2022-12-08T05:08:25.022Z,13.87
2022-12-08T05:10:53.180Z,12.67
2022-12-08T05:13:21.048Z,11.90
2022-12-08T05:15:50.676Z,11.77
2022-12-08T05:18:19.963Z,12.33
2022-12-08T05:20:48.221Z,12.50
2022-12-08T05:23:17.631Z,13.57
2022-12-08T05:25:46.139Z,14.20
2022-12-08T05:28:40.089Z,13.37
2022-12-08T05:31:01.882Z,13.30
2022-12-08T05:33:31.492Z,13.33
2022-12-08T05:35:59.595Z,12.87
2022-12-08T05:38:27.979Z,12.87
2022-12-08T05:40:55.856Z,12.87
2022-12-08T05:43:23.898Z,13.70
2022-12-08T05:45:51.841Z,12.77
2022-12-08T05:48:19.770Z,13.37
2022-12-08T05:50:50.215Z,14.03
2022-12-08T05:53:19.194Z,14.50
2022-12-08T05:55:48.059Z,14.50
2022-12-08T05:58:17.682Z,14.70
2022-12-08T06:00:46.920Z,15.00
2022-12-08T06:03:17.324Z,15.30
2022-12-08T06:05:46.775Z,16.33
2022-12-08T06:08:16.169Z,16.23
2022-12-08T06:10:45.993Z,18.77
2022-12-08T06:13:14.463Z,17.53
2022-12-08T06:15:43.319Z,17.63
2022-12-08T06:18:12.436Z,16.63
2022-12-08T06:20:40.186Z,18.33
2022-12-08T06:23:08.196Z,18.43
2022-12-08T06:25:37.981Z,18.17
2022-12-08T06:28:07.198Z,16.97
2022-12-08T06:30:35.401Z,17.37
2022-12-08T06:33:03.874Z,17.27
2022-12-08T06:35:31.971Z,17.77
2022-12-08T06:38:00.019Z,15.30
2022-12-08T06:40:28.606Z,17.30
2022-12-08T06:42:58.705Z,16.43
2022-12-08T06:45:26.754Z,17.10
2022-12-08T06:47:55.627Z,16.53
2022-12-08T06:50:23.446Z,16.17
2022-12-08T06:53:01.059Z,17.33
2022-12-08T06:55:57.930Z,17.03
2022-12-08T06:58:22.088Z,18.20
2022-12-08T07:00:50.089Z,17.63
2022-12-08T07:03:18.301Z,17.60
2022-12-08T07:05:46.653Z,16.87
2022-12-08T07:08:14.548Z,17.30
2022-12-08T07:10:42.617Z,18.07
2022-12-08T07:13:11.662Z,18.00
2022-12-08T07:15:40.972Z,16.37
2022-12-08T07:18:11.739Z,16.83
2022-12-08T07:20:40.344Z,15.83
2022-12-08T07:23:08.225Z,15.23
2022-12-08T07:25:35.999Z,15.13
2022-12-08T07:28:09.435Z,16.37
2022-12-08T07:30:37.933Z,15.00
2022-12-08T07:33:07.861Z,15.83
2022-12-08T07:35:36.038Z,14.67
2022-12-08T07:38:04.714Z,15.80
2022-12-08T07:40:32.523Z,14.70
2022-12-08T07:43:00.262Z,17.13
2022-12-08T07:45:31.666Z,16.20
2022-12-08T07:48:00.042Z,16.33
2022-12-08T07:50:29.401Z,15.97
2022-12-08T07:52:57.351Z,13.10
2022-12-08T07:55:25.362Z,13.57
2022-12-08T07:57:54.134Z,12.90
2022-12-08T08:00:22.716Z,13.03
2022-12-08T08:02:50.730Z,11.23
2022-12-08T08:05:18.957Z,11.33
2022-12-08T08:07:48.516Z,12.80
2022-12-08T08:10:16.808Z,11.80
2022-12-08T08:12:45.654Z,11.40
2022-12-08T08:15:14.624Z,10.57
2022-12-08T08:17:42.853Z,11.23
2022-12-08T08:20:15.552Z,10.40
2022-12-08T08:22:43.753Z,12.53
2022-12-08T08:25:13.041Z,11.10
2022-12-08T08:27:40.960Z,12.20
2022-12-08T08:30:16.722Z,11.07
2022-12-08T08:32:48.392Z,11.23
2022-12-08T08:35:16.267Z,11.73
2022-12-08T08:37:48.935Z,11.40
2022-12-08T08:40:20.985Z,11.37
2022-12-08T08:42:48.778Z,10.80
2022-12-08T08:45:16.780Z,11.60
2022-12-08T08:47:44.852Z,11.83
2022-12-08T08:50:12.923Z,10.70
2022-12-08T08:52:40.965Z,11.93
2022-12-08T08:55:09.396Z,10.87
2022-12-08T08:57:38.528Z,11.27
2022-12-08T09:00:10.220Z,10.23
2022-12-08T09:02:38.588Z,11.30
2022-12-08T09:05:07.976Z,11.40
2022-12-08T09:07:35.768Z,10.67
2022-12-08T09:10:06.234Z,10.50
2022-12-08T09:12:34.403Z,11.03
2022-12-08T09:15:03.809Z,11.17
2022-12-08T09:17:31.676Z,10.60
2022-12-08T09:20:01.454Z,12.53
2022-12-08T09:22:29.594Z,9.33
2022-12-08T09:24:57.386Z,10.10
2022-12-08T09:27:25.141Z,9.10
2022-12-08T09:29:53.313Z,9.00
2022-12-08T09:32:23.168Z,8.70
2022-12-08T09:34:52.375Z,9.00
2022-12-08T09:37:20.969Z,8.83
2022-12-08T09:39:49.012Z,8.60
2022-12-08T09:42:31.718Z,8.73
2022-12-08T09:45:05.468Z,8.67
2022-12-08T09:47:43.515Z,9.83
2022-12-08T09:50:17.260Z,8.37
2022-12-08T09:52:48.463Z,8.10
2022-12-08T09:55:26.411Z,9.17
2022-12-08T09:58:02.056Z,9.47
2022-12-08T10:00:30.136Z,9.73
2022-12-08T10:03:00.419Z,9.70
2022-12-08T10:05:29.440Z,8.77
2022-12-08T10:08:04.942Z,7.73
2022-12-08T10:10:39.660Z,7.70
2022-12-08T10:13:14.016Z,7.03
2022-12-08T10:15:47.873Z,6.60
2022-12-08T10:18:21.032Z,6.37
2022-12-08T10:20:51.530Z,5.73
2022-12-08T10:23:30.822Z,6.20
2022-12-08T10:26:03.323Z,6.17
2022-12-08T10:28:31.529Z,6.03
2022-12-08T10:30:59.518Z,5.90
2022-12-08T10:33:29.805Z,6.37
2022-12-08T10:36:00.596Z,5.50
2022-12-08T10:38:33.248Z,6.33
2022-12-08T10:41:05.996Z,5.70
2022-12-08T10:43:34.650Z,5.37
2022-12-08T10:46:11.994Z,5.27
2022-12-08T10:48:49.938Z,4.77
2022-12-08T10:51:31.573Z,5.03
2022-12-08T10:53:59.614Z,4.57
2022-12-08T10:56:29.741Z,4.70
2022-12-08T10:59:15.062Z,5.13
2022-12-08T11:01:46.427Z,4.10
2022-12-08T11:04:22.065Z,3.30
2022-12-08T11:06:51.166Z,4.20
2022-12-08T11:09:32.391Z,4.00
2022-12-08T11:12:01.950Z,4.93
2022-12-08T11:14:31.786Z,7.00
2022-12-08T11:17:06.560Z,8.13
2022-12-08T11:19:39.114Z,5.30
2022-12-08T11:22:22.912Z,7.53
2022-12-08T11:25:00.030Z,7.80
2022-12-08T11:27:28.752Z,5.53
2022-12-08T11:29:57.391Z,5.97
2022-12-08T11:32:26.256Z,5.97
2022-12-08T11:34:59.801Z,6.17
2022-12-08T11:37:35.563Z,6.13
2022-12-08T11:40:09.042Z,5.93
2022-12-08T11:42:52.031Z,4.87
2022-12-08T11:45:25.743Z,4.97
2022-12-08T11:48:02.931Z,5.30
2022-12-08T11:50:41.274Z,5.93
2022-12-08T11:53:18.221Z,4.20
2022-12-08T11:55:51.661Z,6.53
2022-12-08T11:58:23.168Z,5.03
2022-12-08T12:00:51.410Z,5.37
2022-12-08T12:03:29.836Z,5.80
2022-12-08T12:06:38.130Z,5.70
2022-12-08T12:09:17.643Z,6.10
2022-12-08T12:12:16.834Z,4.20
2022-12-08T12:15:09.795Z,4.83
2022-12-08T12:17:46.158Z,5.27
2022-12-08T12:20:20.264Z,3.43
2022-12-08T12:22:53.573Z,4.00
2022-12-08T12:25:25.287Z,3.70
2022-12-08T12:27:57.879Z,4.33
2022-12-08T12:30:27.762Z,3.53
2022-12-08T12:32:59.620Z,3.13
2022-12-08T12:35:33.445Z,3.20
2022-12-08T12:38:27.697Z,3.60
2022-12-08T12:41:02.060Z,3.20
2022-12-08T12:43:33.322Z,3.10
2022-12-08T12:46:39.890Z,4.20
2022-12-08T12:49:46.453Z,2.83
2022-12-08T12:52:53.186Z,3.27
2022-12-08T12:55:26.004Z,3.50
2022-12-08T12:57:55.538Z,3.47
2022-12-08T13:00:25.984Z,4.73
2022-12-08T13:02:55.473Z,3.50
2022-12-08T13:05:27.164Z,3.50
2022-12-08T13:07:57.981Z,3.57
2022-12-08T13:10:31.242Z,3.50
2022-12-08T13:13:18.377Z,3.80
2022-12-08T13:15:52.549Z,4.40
2022-12-08T13:18:23.099Z,3.57
2022-12-08T13:20:54.144Z,3.33
2022-12-08T13:23:32.102Z,3.30
2022-12-08T13:26:26.612Z,2.43
2022-12-08T13:29:16.305Z,2.80
2022-12-08T13:31:50.538Z,3.03
2022-12-08T13:34:23.622Z,2.50
2022-12-08T13:37:03.631Z,2.20
2022-12-08T13:39:37.824Z,2.57
2022-12-08T13:42:14.153Z,3.13
2022-12-08T13:47:54.337Z,2.93
2022-12-08T13:59:28.267Z,5.60
2022-12-08T14:01:58.602Z,6.43
2022-12-08T14:05:16.464Z,5.47
2022-12-08T14:07:17.607Z,6.87
2022-12-08T14:09:47.455Z,4.73
2022-12-08T14:12:20.960Z,4.50
2022-12-08T14:15:08.333Z,4.17
2022-12-08T14:17:36.179Z,4.80
2022-12-08T14:20:16.723Z,4.90
2022-12-08T14:22:46.393Z,4.60
2022-12-08T14:25:16.814Z,4.17
2022-12-08T14:27:44.867Z,4.33
2022-12-08T14:30:22.289Z,5.37
2022-12-08T14:32:51.717Z,3.97
2022-12-08T14:35:23.603Z,4.83
2022-12-08T14:37:54.262Z,3.90
2022-12-08T14:40:24.614Z,3.40
2022-12-08T14:42:56.791Z,4.10
2022-12-08T14:45:27.225Z,4.50
2022-12-08T14:47:56.739Z,4.23
2022-12-08T14:50:40.529Z,4.23
2022-12-08T14:53:15.405Z,4.37
2022-12-08T14:55:47.833Z,4.40
2022-12-08T14:58:20.601Z,4.57
2022-12-08T15:00:52.290Z,4.60
2022-12-08T15:03:23.828Z,6.03
2022-12-08T15:05:53.549Z,4.37
2022-12-08T15:08:21.746Z,4.80
2022-12-08T15:11:14.974Z,5.17
2022-12-08T15:13:46.567Z,5.20
2022-12-08T15:16:28.574Z,5.00
2022-12-08T15:19:09.684Z,4.60
2022-12-08T15:21:40.017Z,4.47
2022-12-08T15:24:08.029Z,4.43
2022-12-08T15:26:41.817Z,4.47
2022-12-08T15:29:18.454Z,4.27
2022-12-08T15:31:48.070Z,5.30
2022-12-08T15:34:16.105Z,4.30
2022-12-08T15:36:45.801Z,4.23
2022-12-08T15:39:25.191Z,4.40
2022-12-08T15:41:52.993Z,5.23
2022-12-08T15:44:20.963Z,4.30
2022-12-08T15:46:51.254Z,4.30
2022-12-08T15:49:21.492Z,4.50
2022-12-08T15:51:50.386Z,4.33
2022-12-08T15:54:20.174Z,3.93
2022-12-08T15:57:17.838Z,4.47
2022-12-08T15:59:39.207Z,4.17
2022-12-08T16:02:17.933Z,4.20
2022-12-08T16:07:38.403Z,4.83
2022-12-08T16:10:08.672Z,4.43
2022-12-08T16:13:54.822Z,4.60
2022-12-08T16:15:55.230Z,5.63
2022-12-08T16:18:32.811Z,5.70
2022-12-08T16:21:41.687Z,6.40
2022-12-08T16:23:50.062Z,6.83
2022-12-08T16:27:28.463Z,7.70
2022-12-08T16:29:17.765Z,7.83
2022-12-08T16:31:45.678Z,8.53
2022-12-08T16:34:15.631Z,10.30
2022-12-08T16:36:43.422Z,10.40
2022-12-08T16:39:14.737Z,10.57
2022-12-08T16:41:59.963Z,10.77
2022-12-08T16:44:28.278Z,10.77
2022-12-08T16:46:57.696Z,10.57
2022-12-08T16:49:28.883Z,11.23
2022-12-08T16:51:56.955Z,11.63
2022-12-08T16:54:24.705Z,11.90
2022-12-08T16:56:52.527Z,12.50
2022-12-08T16:59:20.882Z,12.10
2022-12-08T17:01:48.771Z,12.27
2022-12-08T17:04:31.501Z,12.30
2022-12-08T17:07:01.595Z,12.80
2022-12-08T17:09:30.792Z,12.90
2022-12-08T17:12:03.733Z,12.93
2022-12-08T17:14:34.579Z,13.27
2022-12-08T17:17:03.121Z,12.47
2022-12-08T17:19:31.034Z,13.57
2022-12-08T17:21:59.149Z,12.90
2022-12-08T17:24:30.583Z,14.67
2022-12-08T17:26:58.779Z,13.53
2022-12-08T17:29:26.760Z,13.53
2022-12-08T17:31:54.716Z,14.70
2022-12-08T17:34:22.533Z,13.47
2022-12-08T17:36:51.265Z,15.23
2022-12-08T17:39:19.457Z,14.40
2022-12-08T17:41:50.306Z,13.03
2022-12-08T17:44:19.650Z,13.63
2022-12-08T17:46:52.551Z,13.33
2022-12-08T17:49:23.875Z,14.40
2022-12-08T17:51:56.947Z,13.73
2022-12-08T17:54:25.874Z,13.67
2022-12-08T17:56:58.000Z,15.13
2022-12-08T17:59:26.785Z,14.90
2022-12-08T18:01:55.990Z,13.83
2022-12-08T18:04:24.786Z,12.93
2022-12-08T18:06:52.736Z,12.93
2022-12-08T18:09:21.541Z,13.10
2022-12-08T18:11:49.306Z,14.03
2022-12-08T18:14:20.136Z,12.97
2022-12-08T18:16:48.544Z,13.17
2022-12-08T18:19:16.947Z,13.40
2022-12-08T18:21:46.539Z,11.70
2022-12-08T18:24:19.617Z,11.93
2022-12-08T18:26:47.964Z,11.83
2022-12-08T18:29:16.277Z,12.37
2022-12-08T18:31:46.904Z,12.30
2022-12-08T18:34:16.117Z,11.57
2022-12-08T18:36:43.917Z,11.40
2022-12-08T18:39:23.748Z,12.13
2022-12-08T18:41:51.867Z,13.27
2022-12-08T18:44:21.471Z,12.33
2022-12-08T18:46:51.104Z,12.50
2022-12-08T18:49:20.068Z,12.83
2022-12-08T18:51:49.611Z,13.30
2022-12-08T18:54:17.426Z,12.53
2022-12-08T18:56:45.350Z,12.33
2022-12-08T18:59:13.586Z,13.07
2022-12-08T19:01:42.560Z,12.63
2022-12-08T19:04:27.825Z,12.80
2022-12-08T19:06:56.998Z,13.13
2022-12-08T19:09:27.815Z,14.27
2022-12-08T19:11:56.527Z,14.63
2022-12-08T19:14:28.323Z,13.13
2022-12-08T19:16:56.879Z,13.90
2022-12-08T19:19:28.684Z,14.33
2022-12-08T19:21:56.753Z,14.00
2022-12-08T19:24:25.214Z,14.37
2022-12-08T19:26:53.967Z,14.20
2022-12-08T19:29:22.088Z,13.83
2022-12-08T19:31:50.995Z,17.20
2022-12-08T19:34:19.256Z,15.17
2022-12-08T19:36:48.995Z,14.73
2022-12-08T19:39:36.263Z,14.53
2022-12-08T19:42:22.009Z,14.63
2022-12-08T19:44:55.849Z,15.10
2022-12-08T19:47:25.995Z,16.50
2022-12-08T19:50:16.950Z,15.23
2022-12-08T19:52:47.496Z,16.00
2022-12-08T19:55:15.606Z,15.80
2022-12-08T19:57:43.442Z,16.87
2022-12-08T20:00:13.699Z,17.17
2022-12-08T20:02:41.777Z,17.20
2022-12-08T20:05:10.978Z,17.10
2022-12-08T20:07:39.154Z,16.53
2022-12-08T20:10:16.846Z,16.83
2022-12-08T20:12:44.765Z,18.20
2022-12-08T20:15:14.685Z,16.87
2022-12-08T20:17:44.047Z,18.60
2022-12-08T20:20:14.412Z,18.40
2022-12-08T20:22:43.282Z,17.63
2022-12-08T20:25:13.363Z,16.97
2022-12-08T20:27:43.043Z,19.13
2022-12-08T20:30:16.782Z,18.20
2022-12-08T20:32:45.217Z,19.33
2022-12-08T20:35:13.151Z,18.80
2022-12-08T20:37:41.006Z,17.93
2022-12-08T20:40:11.553Z,19.17
2022-12-08T20:42:41.016Z,18.73
2022-12-08T20:45:10.567Z,19.43
2022-12-08T20:47:40.501Z,19.33
2022-12-08T20:50:09.931Z,18.97
2022-12-08T20:52:39.046Z,18.93
2022-12-08T20:55:08.641Z,18.53
2022-12-08T20:57:36.447Z,18.87
2022-12-08T21:00:09.184Z,19.90
2022-12-08T21:02:45.177Z,20.20
2022-12-08T21:05:15.789Z,20.33
2022-12-08T21:07:44.186Z,17.57
2022-12-08T21:10:12.702Z,22.47
2022-12-08T21:12:40.933Z,19.43
2022-12-08T21:15:12.633Z,18.63
2022-12-08T21:17:40.965Z,19.03
2022-12-08T21:20:10.009Z,18.23
2022-12-08T21:22:40.301Z,17.90
2022-12-08T21:25:09.540Z,16.37
2022-12-08T21:27:38.415Z,17.17
2022-12-08T21:30:08.110Z,15.93
2022-12-08T21:32:40.449Z,16.27
2022-12-08T21:35:09.771Z,15.70
2022-12-08T21:37:38.043Z,15.03
2022-12-08T21:40:08.167Z,15.37
2022-12-08T21:42:45.598Z,14.33
2022-12-08T21:45:16.288Z,14.73
2022-12-08T21:47:47.243Z,15.53
2022-12-08T21:50:16.137Z,14.67
2022-12-08T21:52:46.855Z,14.70
2022-12-08T21:55:16.690Z,14.73
2022-12-08T21:57:44.551Z,15.03
2022-12-08T22:00:16.174Z,14.73
2022-12-08T22:02:47.049Z,13.90
2022-12-08T22:05:15.012Z,12.47
2022-12-08T22:07:43.145Z,12.00
2022-12-08T22:10:12.129Z,12.13
2022-12-08T22:12:40.801Z,12.57
2022-12-08T22:15:11.157Z,13.87
2022-12-08T22:17:42.887Z,12.13
2022-12-08T22:20:14.725Z,13.33
2022-12-08T22:22:43.512Z,12.57
2022-12-08T22:25:12.738Z,13.50
2022-12-08T22:27:42.611Z,13.90
2022-12-08T22:30:13.305Z,12.87
2022-12-08T22:32:42.517Z,13.93
2022-12-08T22:35:13.774Z,13.83
2022-12-08T22:37:42.084Z,14.23
2022-12-08T22:40:12.854Z,14.20
2022-12-08T22:42:41.342Z,13.40
2022-12-08T22:45:10.461Z,14.00
2022-12-08T22:47:38.842Z,12.97
2022-12-08T22:50:08.855Z,12.57
2022-12-08T22:52:38.398Z,11.00
2022-12-08T22:55:08.715Z,10.47
2022-12-08T22:57:36.985Z,10.47
2022-12-08T23:00:07.220Z,10.93
2022-12-08T23:02:35.681Z,11.30
2022-12-08T23:05:03.874Z,12.07
2022-12-08T23:07:32.500Z,10.60
2022-12-08T23:10:01.864Z,9.57
2022-12-08T23:12:29.700Z,9.30
2022-12-08T23:14:57.509Z,8.50
2022-12-08T23:17:25.343Z,8.77
2022-12-08T23:19:53.752Z,10.10
2022-12-08T23:22:21.693Z,10.27
2022-12-08T23:24:49.613Z,10.30
2022-12-08T23:27:20.078Z,10.10
2022-12-08T23:29:49.034Z,10.83
2022-12-08T23:32:17.300Z,10.27
2022-12-08T23:34:46.953Z,9.40
2022-12-08T23:37:14.994Z,9.67
2022-12-08T23:39:43.294Z,10.27
2022-12-08T23:42:11.544Z,10.17
2022-12-08T23:44:41.039Z,10.43
2022-12-08T23:47:09.042Z,10.10
2022-12-08T23:49:37.098Z,10.00
2022-12-08T23:52:06.714Z,10.83
2022-12-08T23:54:36.958Z,10.80
2022-12-08T23:57:06.068Z,11.50
2022-12-08T23:59:35.887Z,11.80
